createdAt,value
2017-10-30T00:00:26.611Z,95180.58
2017-10-30T00:02:54.982Z,95175.74
2017-10-30T00:05:23.315Z,95167.48
2017-10-30T00:07:51.651Z,95169.10
2017-10-30T00:10:19.995Z,95178.64
2017-10-30T00:12:48.339Z,95183.98
2017-10-30T00:15:16.677Z,95185.40
2017-10-30T00:17:45.056Z,95178.70
2017-10-30T00:20:13.430Z,95182.86
2017-10-30T00:22:41.771Z,95181.77
2017-10-30T00:25:10.133Z,95189.25
2017-10-30T00:27:38.500Z,95188.08
2017-10-30T00:30:06.879Z,95189.52
2017-10-30T00:32:35.233Z,95186.89
2017-10-30T00:35:03.714Z,95192.25
2017-10-30T00:37:32.054Z,95195.29
2017-10-30T00:40:00.390Z,95190.38
2017-10-30T00:42:28.743Z,95196.66
2017-10-30T00:44:57.077Z,95205.92
2017-10-30T00:47:25.442Z,95207.27
2017-10-30T00:49:53.790Z,95200.80
2017-10-30T00:52:22.148Z,95207.66
2017-10-30T00:54:50.496Z,95208.71
2017-10-30T00:57:18.832Z,95197.50
2017-10-30T00:59:47.177Z,95210.50
2017-10-30T01:02:15.511Z,95207.54
2017-10-30T01:04:43.869Z,95201.17
2017-10-30T01:07:12.206Z,95200.19
2017-10-30T01:09:40.571Z,95204.86
2017-10-30T01:12:08.930Z,95208.47
2017-10-30T01:14:37.306Z,95202.51
2017-10-30T01:17:05.639Z,95202.47
2017-10-30T01:19:34.012Z,95200.69
2017-10-30T01:22:02.346Z,95203.09
2017-10-30T01:24:30.691Z,95204.88
2017-10-30T01:26:59.021Z,95201.36
2017-10-30T01:29:27.398Z,95197.80
2017-10-30T01:31:55.795Z,95205.97
2017-10-30T01:34:24.140Z,95199.74
2017-10-30T01:36:52.510Z,95209.38
2017-10-30T01:39:20.871Z,95212.63
2017-10-30T01:41:49.215Z,95207.44
2017-10-30T01:44:17.554Z,95206.87
2017-10-30T01:46:45.910Z,95211.16
2017-10-30T01:49:14.278Z,95204.38
2017-10-30T01:51:42.628Z,95217.01
2017-10-30T01:54:11.009Z,95208.32
2017-10-30T01:56:39.350Z,95224.38
2017-10-30T01:59:07.711Z,95213.95
2017-10-30T02:01:36.057Z,95212.49
2017-10-30T02:04:04.436Z,95210.27
2017-10-30T02:06:32.773Z,95213.28
2017-10-30T02:09:01.116Z,95219.69
2017-10-30T02:11:29.471Z,95213.49
2017-10-30T02:13:57.811Z,95208.27
2017-10-30T02:16:26.154Z,95215.27
2017-10-30T02:18:54.495Z,95218.30
2017-10-30T02:21:22.842Z,95227.88
2017-10-30T02:23:51.207Z,95223.25
2017-10-30T02:26:19.553Z,95226.28
2017-10-30T02:28:47.915Z,95213.07
2017-10-30T02:31:16.260Z,95224.14
2017-10-30T02:33:44.597Z,95239.59
2017-10-30T02:36:13.072Z,95225.88
2017-10-30T02:38:41.400Z,95226.31
2017-10-30T02:41:09.742Z,95228.66
2017-10-30T02:43:38.108Z,95231.52
2017-10-30T02:46:06.454Z,95246.43
2017-10-30T02:48:34.883Z,95233.22
2017-10-30T02:51:03.226Z,95242.19
2017-10-30T02:53:31.775Z,95244.15
2017-10-30T02:56:00.127Z,95252.13
2017-10-30T02:58:28.467Z,95258.93
2017-10-30T03:00:56.847Z,95242.77
2017-10-30T03:03:25.186Z,95245.50
2017-10-30T03:05:53.562Z,95247.28
2017-10-30T03:08:21.905Z,95249.28
2017-10-30T03:10:50.239Z,95247.67
2017-10-30T03:13:18.584Z,95252.63
2017-10-30T03:15:46.956Z,95255.80
2017-10-30T03:18:15.299Z,95254.52
2017-10-30T03:20:43.645Z,95261.48
2017-10-30T03:23:11.990Z,95255.48
2017-10-30T03:25:40.356Z,95259.42
2017-10-30T03:28:08.702Z,95264.84
2017-10-30T03:30:37.085Z,95268.79
2017-10-30T03:33:05.429Z,95271.67
2017-10-30T03:35:33.792Z,95269.69
2017-10-30T03:38:02.137Z,95265.13
2017-10-30T03:40:30.484Z,95276.69
2017-10-30T03:42:58.832Z,95287.62
2017-10-30T03:45:27.178Z,95287.20
2017-10-30T03:47:55.529Z,95287.73
2017-10-30T03:50:23.870Z,95289.59
2017-10-30T03:52:52.247Z,95296.20
2017-10-30T03:55:20.587Z,95299.16
2017-10-30T03:57:48.962Z,95300.05
2017-10-30T04:00:17.330Z,95309.13
2017-10-30T04:02:45.688Z,95308.72
2017-10-30T04:05:14.056Z,95307.36
2017-10-30T04:07:42.422Z,95305.27
2017-10-30T04:10:11.655Z,95329.15
2017-10-30T04:12:40.027Z,95326.86
2017-10-30T04:15:08.363Z,95333.97
2017-10-30T04:17:36.711Z,95332.50
2017-10-30T04:20:05.082Z,95336.80
2017-10-30T04:22:33.454Z,95335.45
2017-10-30T04:25:01.830Z,95337.32
2017-10-30T04:27:30.198Z,95335.45
2017-10-30T04:29:58.543Z,95336.43
2017-10-30T04:32:26.923Z,95344.41
2017-10-30T04:34:55.299Z,95333.17
2017-10-30T04:37:23.674Z,95338.20
2017-10-30T04:39:52.027Z,95345.39
2017-10-30T04:42:20.362Z,95333.58
2017-10-30T04:44:48.706Z,95336.22
2017-10-30T04:47:17.043Z,95342.85
2017-10-30T04:49:46.094Z,95344.05
2017-10-30T04:52:14.435Z,95350.81
2017-10-30T04:54:42.807Z,95349.05
2017-10-30T04:57:11.168Z,95354.68
2017-10-30T04:59:39.552Z,95351.73
2017-10-30T05:02:07.900Z,95358.72
2017-10-30T05:04:36.247Z,95354.57
2017-10-30T05:07:04.587Z,95357.72
2017-10-30T05:09:32.930Z,95365.52
2017-10-30T05:12:01.288Z,95365.52
2017-10-30T05:14:29.651Z,95364.84
2017-10-30T05:16:57.991Z,95374.00
2017-10-30T05:19:26.355Z,95377.05
2017-10-30T05:21:54.737Z,95379.11
2017-10-30T05:24:23.116Z,95381.09
2017-10-30T05:26:51.459Z,95387.88
2017-10-30T05:29:19.801Z,95385.22
2017-10-30T05:31:48.151Z,95393.96
2017-10-30T05:34:16.527Z,95392.92
2017-10-30T05:36:44.875Z,95400.09
2017-10-30T05:39:13.235Z,95404.73
2017-10-30T05:41:41.581Z,95399.13
2017-10-30T05:44:09.961Z,95392.03
2017-10-30T05:46:38.305Z,95393.67
2017-10-30T05:49:06.671Z,95387.30
2017-10-30T05:51:35.015Z,95397.95
2017-10-30T05:54:03.369Z,95395.26
2017-10-30T05:56:31.727Z,95395.98
2017-10-30T05:59:00.075Z,95389.37
2017-10-30T06:01:28.407Z,95399.50
2017-10-30T06:03:56.746Z,95411.68
2017-10-30T06:06:25.093Z,95404.54
2017-10-30T06:08:53.458Z,95414.38
2017-10-30T06:11:21.805Z,95412.00
2017-10-30T06:13:50.175Z,95402.56
2017-10-30T06:16:18.515Z,95405.91
2017-10-30T06:18:46.870Z,95406.48
2017-10-30T06:21:15.219Z,95408.77
2017-10-30T06:23:43.563Z,95405.14
2017-10-30T06:26:11.911Z,95405.81
2017-10-30T06:28:40.251Z,95412.25
2017-10-30T06:31:08.617Z,95414.91
2017-10-30T06:33:36.963Z,95423.97
2017-10-30T06:36:05.352Z,95427.38
2017-10-30T06:38:33.686Z,95432.23
2017-10-30T06:41:02.036Z,95443.20
2017-10-30T06:43:30.374Z,95440.64
2017-10-30T06:45:58.748Z,95443.25
2017-10-30T06:48:27.116Z,95451.81
2017-10-30T06:50:55.488Z,95453.89
2017-10-30T06:53:23.818Z,95457.42
2017-10-30T06:55:52.186Z,95458.61
2017-10-30T06:58:20.530Z,95469.98
2017-10-30T07:00:48.893Z,95478.64
2017-10-30T07:03:17.234Z,95485.53
2017-10-30T07:05:45.587Z,95483.25
2017-10-30T07:08:13.941Z,95488.47
2017-10-30T07:10:42.319Z,95491.05
2017-10-30T07:13:10.662Z,95493.02
2017-10-30T07:15:39.012Z,95500.78
2017-10-30T07:18:07.400Z,95503.67
2017-10-30T07:20:35.763Z,95509.89
2017-10-30T07:23:04.103Z,95516.58
2017-10-30T07:25:32.459Z,95521.03
2017-10-30T07:28:00.809Z,95514.13
2017-10-30T07:30:29.155Z,95519.11
2017-10-30T07:32:57.527Z,95520.50
2017-10-30T07:35:25.906Z,95520.00
2017-10-30T07:37:54.255Z,95528.11
2017-10-30T07:40:22.601Z,95531.08
2017-10-30T07:42:50.946Z,95523.09
2017-10-30T07:45:19.281Z,95532.95
2017-10-30T07:47:47.658Z,95540.13
2017-10-30T07:50:15.998Z,95538.30
2017-10-30T07:52:44.341Z,95539.39
2017-10-30T07:55:12.702Z,95531.78
2017-10-30T07:57:41.048Z,95544.85
2017-10-30T08:00:09.432Z,95538.53
2017-10-30T08:02:37.792Z,95553.94
2017-10-30T08:05:06.136Z,95554.50
2017-10-30T08:07:34.467Z,95549.47
2017-10-30T08:10:02.808Z,95556.82
2017-10-30T08:12:31.142Z,95558.00
2017-10-30T08:14:59.515Z,95570.97
2017-10-30T08:17:27.855Z,95573.34
2017-10-30T08:19:56.188Z,95570.02
2017-10-30T08:22:24.522Z,95568.07
2017-10-30T08:24:52.888Z,95569.55
2017-10-30T08:27:21.259Z,95569.53
2017-10-30T08:29:49.599Z,95567.75
2017-10-30T08:32:17.969Z,95575.77
2017-10-30T08:34:46.294Z,95573.49
2017-10-30T08:37:14.631Z,95584.95
2017-10-30T08:39:42.966Z,95583.67
2017-10-30T08:42:11.335Z,95587.33
2017-10-30T08:44:39.970Z,95589.00
2017-10-30T08:47:08.320Z,95599.88
2017-10-30T08:49:36.651Z,95585.16
2017-10-30T08:52:04.996Z,95598.19
2017-10-30T08:54:33.326Z,95597.59
2017-10-30T08:57:01.660Z,95609.37
2017-10-30T08:59:29.994Z,95609.64
2017-10-30T09:01:58.330Z,95605.39
2017-10-30T09:04:26.687Z,95608.66
2017-10-30T09:06:55.023Z,95607.57
2017-10-30T09:09:23.381Z,95623.39
2017-10-30T09:11:51.708Z,95627.14
2017-10-30T09:14:20.051Z,95632.17
2017-10-30T09:16:48.378Z,95632.86
2017-10-30T09:19:16.713Z,95628.69
2017-10-30T09:21:45.081Z,95630.89
2017-10-30T09:24:13.475Z,95627.13
2017-10-30T09:26:41.814Z,95627.01
2017-10-30T09:29:10.194Z,95637.19
2017-10-30T09:31:38.559Z,95636.30
2017-10-30T09:34:06.885Z,95636.87
2017-10-30T09:36:35.254Z,95646.10
2017-10-30T09:39:03.642Z,95636.37
2017-10-30T09:41:31.967Z,95639.14
2017-10-30T09:44:00.304Z,95639.70
2017-10-30T09:46:28.644Z,95643.70
2017-10-30T09:48:57.011Z,95647.99
2017-10-30T09:51:25.344Z,95651.69
2017-10-30T09:53:53.704Z,95654.77
2017-10-30T11:53:06.762Z,95680.20
2017-10-30T11:55:35.094Z,95686.02
2017-10-30T11:58:03.435Z,95683.41
2017-10-30T12:00:31.770Z,95686.75
2017-10-30T12:03:00.111Z,95688.31
2017-10-30T12:05:28.438Z,95694.11
2017-10-30T12:07:56.801Z,95692.24
2017-10-30T12:10:25.172Z,95692.80
2017-10-30T12:12:53.562Z,95696.81
2017-10-30T12:15:21.890Z,95695.19
2017-10-30T12:17:50.255Z,95700.08
2017-10-30T12:20:18.579Z,95694.34
2017-10-30T12:22:46.915Z,95702.66
2017-10-30T12:25:15.250Z,95695.46
2017-10-30T12:27:43.595Z,95700.75
2017-10-30T12:30:11.922Z,95698.72
2017-10-30T12:32:40.259Z,95706.79
2017-10-30T12:35:08.628Z,95712.74
2017-10-30T12:37:36.969Z,95714.37
2017-10-30T12:40:05.330Z,95711.64
2017-10-30T12:42:33.668Z,95715.58
2017-10-30T12:45:02.004Z,95717.14
2017-10-30T12:47:30.341Z,95728.22
2017-10-30T12:49:58.716Z,95727.04
2017-10-30T12:52:27.047Z,95726.44
2017-10-30T12:54:55.378Z,95725.53
2017-10-30T12:57:23.705Z,95720.75
2017-10-30T12:59:52.038Z,95725.77
2017-10-30T13:02:20.370Z,95734.41
2017-10-30T13:04:48.702Z,95732.86
2017-10-30T13:07:17.082Z,95729.86
2017-10-30T13:09:45.410Z,95732.92
2017-10-30T13:12:13.771Z,95723.58
2017-10-30T13:14:42.100Z,95720.41
2017-10-30T13:17:10.444Z,95718.19
2017-10-30T13:19:38.784Z,95718.63
2017-10-30T13:22:07.110Z,95718.01
2017-10-30T13:24:35.444Z,95725.27
2017-10-30T13:27:03.772Z,95730.63
2017-10-30T13:29:32.135Z,95720.66
2017-10-30T13:32:00.476Z,95712.19
2017-10-30T13:34:28.813Z,95719.81
2017-10-30T13:36:57.189Z,95716.05
2017-10-30T13:39:25.519Z,95719.23
2017-10-30T13:41:53.850Z,95729.41
2017-10-30T13:44:22.202Z,95722.84
2017-10-30T13:46:50.536Z,95725.44
2017-10-30T13:49:18.867Z,95720.48
2017-10-30T13:51:47.217Z,95724.19
2017-10-30T13:54:15.546Z,95727.92
2017-10-30T13:56:43.883Z,95730.25
2017-10-30T13:59:12.246Z,95727.13
2017-10-30T14:01:40.584Z,95727.11
2017-10-30T14:04:08.914Z,95732.80
2017-10-30T14:06:37.241Z,95728.14
2017-10-30T14:09:05.579Z,95727.38
2017-10-30T14:11:33.932Z,95733.35
2017-10-30T14:14:02.271Z,95740.10
2017-10-30T14:16:30.615Z,95730.57
2017-10-30T14:18:58.952Z,95734.84
2017-10-30T14:21:27.275Z,95728.42
2017-10-30T14:23:55.614Z,95735.08
2017-10-30T14:26:24.139Z,95725.29
2017-10-30T14:28:52.607Z,95730.44
2017-10-30T14:31:20.985Z,95741.78
2017-10-30T14:33:49.310Z,95741.30
2017-10-30T14:36:17.634Z,95738.50
2017-10-30T14:38:46.004Z,95743.08
2017-10-30T14:41:14.386Z,95742.29
2017-10-30T14:43:42.739Z,95745.88
2017-10-30T14:46:11.070Z,95738.26
2017-10-30T14:48:39.399Z,95742.84
2017-10-30T14:51:07.735Z,95741.63
2017-10-30T14:53:36.102Z,95741.52
2017-10-30T14:56:04.456Z,95745.48
2017-10-30T14:58:32.833Z,95746.27
2017-10-30T15:01:01.164Z,95739.55
2017-10-30T15:03:29.495Z,95745.09
2017-10-30T15:05:57.827Z,95741.73
2017-10-30T15:08:26.163Z,95744.98
2017-10-30T15:10:54.525Z,95747.37
2017-10-30T15:13:22.867Z,95754.50
2017-10-30T15:15:51.199Z,95749.34
2017-10-30T15:18:19.534Z,95755.42
2017-10-30T15:20:47.862Z,95753.81
2017-10-30T15:23:28.692Z,95754.60
2017-10-30T15:25:57.040Z,95753.81
2017-10-30T15:28:25.576Z,95751.67
2017-10-30T15:30:54.053Z,95749.56
2017-10-30T15:33:22.448Z,95760.75
2017-10-30T15:35:50.795Z,95761.16
2017-10-30T15:38:19.144Z,95757.41
2017-10-30T15:40:47.624Z,95764.81
2017-10-30T15:43:17.074Z,95761.95
2017-10-30T15:45:50.517Z,95782.23
2017-10-30T15:48:18.990Z,95775.52
2017-10-30T15:50:47.349Z,95769.96
2017-10-30T15:53:15.823Z,95782.93
2017-10-30T15:55:44.280Z,95785.29
2017-10-30T15:58:12.636Z,95785.28
2017-10-30T16:00:40.979Z,95784.09
2017-10-30T16:03:09.316Z,95788.13
2017-10-30T16:05:37.655Z,95786.44
2017-10-30T16:08:06.042Z,95786.31
2017-10-30T16:10:34.388Z,95787.33
2017-10-30T16:13:02.756Z,95798.00
2017-10-30T16:18:09.424Z,95797.02
2017-10-30T16:20:37.756Z,95799.73
2017-10-30T16:23:06.168Z,95791.69
2017-10-30T16:25:34.527Z,95799.97
2017-10-30T16:28:02.911Z,95799.41
2017-10-30T16:30:31.275Z,95800.47
2017-10-30T16:32:59.631Z,95799.09
2017-10-30T16:35:27.999Z,95797.68
2017-10-30T16:37:56.363Z,95799.11
2017-10-30T16:40:24.702Z,95795.26
2017-10-30T16:42:53.108Z,95808.99
2017-10-30T16:45:21.449Z,95807.77
2017-10-30T16:47:49.797Z,95808.97
2017-10-30T16:50:18.137Z,95809.27
2017-10-30T16:52:46.494Z,95812.60
2017-10-30T16:55:14.884Z,95813.67
2017-10-30T16:57:43.263Z,95816.83
2017-10-30T17:00:11.879Z,95815.19
2017-10-30T17:02:40.215Z,95813.75
2017-10-30T17:05:08.557Z,95820.23
2017-10-30T17:07:36.931Z,95815.40
2017-10-30T17:10:05.266Z,95816.49
2017-10-30T17:12:33.625Z,95821.27
2017-10-30T17:15:02.004Z,95823.11
2017-10-30T17:17:30.399Z,95823.38
2017-10-30T17:19:58.770Z,95820.24
2017-10-30T17:22:27.106Z,95827.16
2017-10-30T17:24:55.443Z,95826.81
2017-10-30T17:27:23.778Z,95826.64
2017-10-30T17:29:52.157Z,95838.91
2017-10-30T17:32:20.487Z,95845.83
2017-10-30T17:34:48.838Z,95841.06
2017-10-30T17:37:17.190Z,95845.10
2017-10-30T17:39:45.573Z,95840.36
2017-10-30T17:42:13.926Z,95845.30
2017-10-30T17:44:42.294Z,95834.61
2017-10-30T17:47:10.658Z,95833.77
2017-10-30T17:49:39.046Z,95839.86
2017-10-30T17:52:07.387Z,95838.17
2017-10-30T17:54:35.744Z,95834.67
2017-10-30T17:57:04.103Z,95838.77
2017-10-30T17:59:32.491Z,95840.91
2017-10-30T18:02:00.881Z,95845.33
2017-10-30T18:04:29.231Z,95848.31
2017-10-30T18:06:59.943Z,95853.42
2017-10-30T18:09:28.342Z,95857.38
2017-10-30T18:11:56.748Z,95857.00
2017-10-30T18:14:25.196Z,95850.52
2017-10-30T18:16:53.580Z,95849.36
2017-10-30T18:19:21.950Z,95852.33
2017-10-30T18:24:51.655Z,95855.64
2017-10-30T18:27:20.014Z,95852.25
2017-10-30T18:29:48.415Z,95850.44
2017-10-30T18:32:16.800Z,95847.04
2017-10-30T18:34:45.147Z,95850.19
2017-10-30T18:37:13.486Z,95853.41
2017-10-30T18:39:43.037Z,95855.08
2017-10-30T18:42:11.432Z,95856.70
2017-10-30T18:44:39.915Z,95859.55
2017-10-30T18:47:08.291Z,95866.48
2017-10-30T18:49:36.653Z,95865.88
2017-10-30T18:52:05.043Z,95863.95
2017-10-30T18:54:33.389Z,95875.09
2017-10-30T18:57:01.763Z,95869.20
2017-10-30T18:59:30.106Z,95875.14
2017-10-30T19:01:58.487Z,95876.77
2017-10-30T19:04:26.840Z,95872.23
2017-10-30T19:06:55.219Z,95881.59
2017-10-30T19:09:24.499Z,95878.87
2017-10-30T19:11:52.862Z,95876.30
2017-10-30T19:14:21.234Z,95876.58
2017-10-30T19:16:49.610Z,95880.77
2017-10-30T19:19:17.950Z,95880.35
2017-10-30T19:21:46.331Z,95874.08
2017-10-30T19:24:15.603Z,95884.58
2017-10-30T19:26:44.351Z,95875.41
2017-10-30T19:29:12.754Z,95876.89
2017-10-30T19:31:41.098Z,95877.24
2017-10-30T19:34:09.462Z,95872.05
2017-10-30T19:36:37.840Z,95877.60
2017-10-30T19:39:06.239Z,95876.72
2017-10-30T19:41:34.662Z,95881.84
2017-10-30T19:44:03.025Z,95880.20
2017-10-30T19:46:31.430Z,95884.72
2017-10-30T19:48:59.795Z,95883.13
2017-10-30T19:51:28.172Z,95879.18
2017-10-30T19:53:56.552Z,95881.41
2017-10-30T19:56:24.895Z,95883.46
2017-10-30T19:58:53.239Z,95878.88
2017-10-30T20:01:21.612Z,95876.16
2017-10-30T20:03:49.996Z,95877.66
2017-10-30T20:06:23.842Z,95878.70
2017-10-30T20:08:57.864Z,95881.83
2017-10-30T20:11:31.776Z,95887.55
2017-10-30T20:14:00.123Z,95890.44
2017-10-30T20:16:28.471Z,95896.74
2017-10-30T20:18:56.839Z,95893.06
2017-10-30T20:21:25.236Z,95894.50
2017-10-30T20:23:54.934Z,95897.56
2017-10-30T20:26:23.288Z,95895.31
2017-10-30T20:28:51.662Z,95896.20
2017-10-30T20:31:20.047Z,95900.07
2017-10-30T20:33:48.396Z,95903.53
2017-10-30T20:36:16.743Z,95901.63
2017-10-30T20:38:45.140Z,95908.22
2017-10-30T20:41:13.511Z,95906.79
2017-10-30T20:43:41.914Z,95909.02
2017-10-30T20:46:10.281Z,95905.03
2017-10-30T20:48:38.614Z,95904.70
2017-10-30T20:51:06.970Z,95912.59
2017-10-30T20:53:35.390Z,95907.97
2017-10-30T20:56:03.766Z,95915.03
2017-10-30T20:58:32.135Z,95909.25
2017-10-30T21:01:00.476Z,95914.06
2017-10-30T21:03:28.848Z,95914.93
2017-10-30T21:06:10.759Z,95915.02
2017-10-30T21:08:39.288Z,95909.65
2017-10-30T21:11:07.733Z,95917.94
2017-10-30T21:13:36.087Z,95911.42
2017-10-30T21:16:04.468Z,95912.89
2017-10-30T21:18:32.913Z,95910.03
2017-10-30T21:21:01.277Z,95911.95
2017-10-30T21:23:29.618Z,95910.66
2017-10-30T21:25:57.972Z,95905.56
2017-10-30T21:28:26.322Z,95907.37
2017-10-30T21:30:54.674Z,95906.22
2017-10-30T21:33:23.124Z,95906.95
2017-10-30T21:35:54.233Z,95912.21
2017-10-30T21:38:22.640Z,95915.63
2017-10-30T21:40:51.045Z,95917.41
2017-10-30T21:43:19.386Z,95915.59
2017-10-30T21:45:47.776Z,95915.45
2017-10-30T21:48:16.139Z,95913.25
2017-10-30T21:50:44.495Z,95914.39
2017-10-30T21:53:12.897Z,95913.90
2017-10-30T21:55:41.238Z,95916.37
2017-10-30T21:58:09.599Z,95908.88
2017-10-30T22:00:37.971Z,95906.78
2017-10-30T22:03:06.322Z,95908.75
2017-10-30T22:05:34.684Z,95907.39
2017-10-30T22:08:03.077Z,95907.07
2017-10-30T22:10:31.635Z,95909.04
2017-10-30T22:13:00.023Z,95905.06
2017-10-30T22:15:28.385Z,95907.86
2017-10-30T22:18:01.588Z,95902.00
2017-10-30T22:20:29.971Z,95907.67
2017-10-30T22:22:58.318Z,95901.95
2017-10-30T22:25:26.642Z,95907.83
2017-10-30T22:27:55.006Z,95908.12
2017-10-30T22:30:23.415Z,95905.28
2017-10-30T22:32:51.764Z,95902.67
2017-10-30T22:35:20.099Z,95899.02
2017-10-30T22:37:48.451Z,95898.73
2017-10-30T22:40:16.806Z,95900.70
2017-10-30T22:42:45.179Z,95908.09
2017-10-30T22:45:13.526Z,95906.81
2017-10-30T22:47:41.883Z,95906.29
2017-10-30T22:50:10.270Z,95909.52
2017-10-30T22:52:38.639Z,95901.95
2017-10-30T22:55:06.999Z,95906.13
2017-10-30T22:57:35.675Z,95918.03
2017-10-30T23:00:04.138Z,95912.17
2017-10-30T23:02:32.483Z,95912.44
2017-10-30T23:05:00.835Z,95916.88
2017-10-30T23:07:29.204Z,95914.41
2017-10-30T23:09:57.553Z,95914.91
2017-10-30T23:12:25.946Z,95916.31
2017-10-30T23:14:54.294Z,95914.48
2017-10-30T23:17:22.658Z,95922.23
2017-10-30T23:19:51.018Z,95913.42
2017-10-30T23:22:19.371Z,95908.00
2017-10-30T23:24:47.725Z,95905.60
2017-10-30T23:27:16.117Z,95902.18
2017-10-30T23:29:44.459Z,95901.95
2017-10-30T23:32:12.804Z,95906.41
2017-10-30T23:34:41.159Z,95901.22
2017-10-30T23:37:09.503Z,95897.95
2017-10-30T23:39:37.842Z,95902.83
2017-10-30T23:42:06.190Z,95906.13
2017-10-30T23:44:34.536Z,95901.13
2017-10-30T23:47:02.871Z,95898.69
2017-10-30T23:49:31.244Z,95896.05
2017-10-30T23:51:59.601Z,95900.72
2017-10-30T23:54:27.961Z,95896.97
2017-10-30T23:56:56.306Z,95895.47
2017-10-30T23:59:24.671Z,95891.52
